createdAt,value
2023-03-29T00:01:35.746Z,92.76
2023-03-29T00:04:06.456Z,93.23
2023-03-29T00:06:33.926Z,92.85
2023-03-29T00:09:01.824Z,93.38
2023-03-29T00:11:28.803Z,92.76
2023-03-29T00:13:55.539Z,90.10
2023-03-29T00:16:22.445Z,91.24
2023-03-29T00:18:49.177Z,92.10
2023-03-29T00:21:15.930Z,89.38
2023-03-29T00:23:42.532Z,90.06
2023-03-29T00:26:09.225Z,88.96
2023-03-29T00:28:36.025Z,91.87
2023-03-29T00:31:11.136Z,95.27
2023-03-29T00:33:38.760Z,92.43
2023-03-29T00:36:06.202Z,91.72
2023-03-29T00:38:33.583Z,88.44
2023-03-29T00:41:00.681Z,92.55
2023-03-29T00:43:27.614Z,93.02
2023-03-29T00:45:54.198Z,93.57
2023-03-29T00:48:28.062Z,93.83
2023-03-29T00:50:59.702Z,92.22
2023-03-29T00:53:33.873Z,90.46
2023-03-29T00:56:07.848Z,91.92
2023-03-29T00:58:51.896Z,90.83
2023-03-29T01:01:35.571Z,91.20
2023-03-29T01:04:08.568Z,92.27
2023-03-29T01:06:40.470Z,89.07
2023-03-29T01:09:10.358Z,91.60
2023-03-29T01:11:42.330Z,93.16
2023-03-29T01:14:23.670Z,94.66
2023-03-29T01:16:50.450Z,93.11
2023-03-29T01:19:22.079Z,94.55
2023-03-29T01:22:39.800Z,96.14
2023-03-29T01:25:11.442Z,96.34
2023-03-29T01:28:02.370Z,96.65
2023-03-29T01:30:37.302Z,92.75
2023-03-29T01:33:10.975Z,95.29
2023-03-29T01:36:11.731Z,100.00
2023-03-29T01:38:58.005Z,100.00
2023-03-29T01:41:56.537Z,96.91
2023-03-29T01:44:35.433Z,96.60
2023-03-29T01:47:19.303Z,96.93
2023-03-29T01:50:05.601Z,97.97
2023-03-29T01:52:38.648Z,97.16
2023-03-29T01:55:17.402Z,98.71
2023-03-29T01:57:46.819Z,97.89
2023-03-29T02:00:16.690Z,97.29
2023-03-29T02:02:46.253Z,99.46
2023-03-29T02:05:15.249Z,99.60
2023-03-29T02:07:44.961Z,100.00
2023-03-29T02:10:13.165Z,100.00
2023-03-29T02:12:39.754Z,100.00
2023-03-29T02:15:12.904Z,100.00
2023-03-29T02:17:39.492Z,100.00
2023-03-29T02:20:23.619Z,100.00
2023-03-29T02:22:54.668Z,100.00
2023-03-29T02:25:22.625Z,100.00
2023-03-29T02:27:49.624Z,100.00
2023-03-29T02:30:18.516Z,100.00
2023-03-29T02:33:32.650Z,100.00
2023-03-29T02:36:05.158Z,100.00
2023-03-29T02:38:32.808Z,100.00
2023-03-29T02:41:01.148Z,100.00
2023-03-29T02:43:29.600Z,100.00
2023-03-29T02:45:57.079Z,100.00
2023-03-29T02:48:26.855Z,100.00
2023-03-29T02:50:57.774Z,100.00
2023-03-29T02:53:30.026Z,100.00
2023-03-29T02:55:56.869Z,100.00
2023-03-29T02:58:26.678Z,100.00
2023-03-29T03:00:53.877Z,100.00
2023-03-29T03:03:20.947Z,100.00
2023-03-29T03:05:49.049Z,100.00
2023-03-29T03:08:15.614Z,100.00
2023-03-29T03:10:42.183Z,100.00
2023-03-29T03:13:08.974Z,100.00
2023-03-29T03:15:35.889Z,100.00
2023-03-29T03:18:03.900Z,100.00
2023-03-29T03:20:31.263Z,100.00
2023-03-29T03:22:58.562Z,100.00
2023-03-29T03:25:25.206Z,100.00
2023-03-29T03:27:51.935Z,100.00
2023-03-29T03:30:18.945Z,100.00
2023-03-29T03:32:45.721Z,100.00
2023-03-29T03:35:12.969Z,100.00
2023-03-29T03:37:40.147Z,100.00
2023-03-29T03:40:08.955Z,100.00
2023-03-29T03:42:35.843Z,100.00
2023-03-29T03:45:02.455Z,100.00
2023-03-29T03:47:29.377Z,100.00
2023-03-29T03:49:56.448Z,100.00
2023-03-29T03:52:23.281Z,100.00
2023-03-29T03:54:50.309Z,100.00
2023-03-29T03:57:17.539Z,100.00
2023-03-29T03:59:44.760Z,100.00
2023-03-29T04:02:11.390Z,100.00
2023-03-29T04:04:38.105Z,100.00
2023-03-29T04:07:04.874Z,100.00
2023-03-29T04:09:33.323Z,100.00
2023-03-29T04:12:01.635Z,100.00
2023-03-29T04:14:28.360Z,100.00
2023-03-29T04:16:55.543Z,100.00
2023-03-29T04:19:23.138Z,100.00
2023-03-29T04:21:51.275Z,100.00
2023-03-29T04:24:18.014Z,100.00
2023-03-29T04:26:44.625Z,100.00
2023-03-29T04:29:11.807Z,100.00
2023-03-29T04:31:38.404Z,100.00
2023-03-29T04:34:05.261Z,100.00
2023-03-29T04:36:31.911Z,100.00
2023-03-29T04:39:01.409Z,100.00
2023-03-29T04:41:28.717Z,100.00
2023-03-29T04:43:56.043Z,100.00
2023-03-29T04:46:26.516Z,100.00
2023-03-29T04:48:54.090Z,100.00
2023-03-29T04:51:22.379Z,100.00
2023-03-29T04:53:50.389Z,100.00
2023-03-29T04:56:17.624Z,100.00
2023-03-29T04:58:44.641Z,100.00
2023-03-29T05:01:11.743Z,100.00
2023-03-29T05:03:38.636Z,100.00
2023-03-29T05:06:09.220Z,100.00
2023-03-29T05:08:39.207Z,100.00
2023-03-29T05:11:08.392Z,100.00
2023-03-29T05:13:35.684Z,100.00
2023-03-29T05:16:02.791Z,100.00
2023-03-29T05:18:30.238Z,100.00
2023-03-29T05:20:57.939Z,100.00
2023-03-29T05:23:25.235Z,100.00
2023-03-29T05:25:55.672Z,100.00
2023-03-29T05:28:22.499Z,100.00
2023-03-29T05:30:59.856Z,100.00
2023-03-29T05:33:26.867Z,100.00
2023-03-29T05:36:08.491Z,100.00
2023-03-29T05:38:35.815Z,100.00
2023-03-29T05:41:03.182Z,100.00
2023-03-29T05:43:30.320Z,100.00
2023-03-29T05:45:57.305Z,100.00
2023-03-29T05:48:24.716Z,100.00
2023-03-29T05:50:53.673Z,100.00
2023-03-29T05:53:22.316Z,100.00
2023-03-29T05:55:49.313Z,100.00
2023-03-29T05:58:18.043Z,100.00
2023-03-29T06:00:44.978Z,100.00
2023-03-29T06:03:21.502Z,100.00
2023-03-29T06:05:57.128Z,100.00
2023-03-29T06:08:23.862Z,100.00
2023-03-29T06:10:50.441Z,100.00
2023-03-29T06:13:17.460Z,100.00
2023-03-29T06:15:45.208Z,100.00
2023-03-29T06:18:11.867Z,100.00
2023-03-29T06:20:38.531Z,100.00
2023-03-29T06:23:05.139Z,100.00
2023-03-29T06:25:31.941Z,100.00
2023-03-29T06:27:58.558Z,100.00
2023-03-29T06:30:25.935Z,100.00
2023-03-29T06:32:52.664Z,100.00
2023-03-29T06:35:19.345Z,100.00
2023-03-29T06:37:50.005Z,100.00
2023-03-29T06:40:19.164Z,100.00
2023-03-29T06:42:46.485Z,100.00
2023-03-29T06:45:13.689Z,100.00
2023-03-29T06:47:41.156Z,100.00
2023-03-29T06:50:08.546Z,100.00
2023-03-29T06:52:35.270Z,100.00
2023-03-29T06:55:01.945Z,100.00
2023-03-29T06:57:28.594Z,100.00
2023-03-29T06:59:55.313Z,100.00
2023-03-29T07:02:22.701Z,100.00
2023-03-29T07:04:49.411Z,100.00
2023-03-29T07:07:22.714Z,100.00
2023-03-29T07:09:58.084Z,100.00
2023-03-29T07:12:24.722Z,100.00
2023-03-29T07:14:51.357Z,100.00
2023-03-29T07:17:18.541Z,100.00
2023-03-29T07:19:45.182Z,100.00
2023-03-29T07:22:11.779Z,100.00
2023-03-29T07:24:38.378Z,100.00
2023-03-29T07:27:05.119Z,100.00
2023-03-29T07:29:32.609Z,100.00
2023-03-29T07:31:59.202Z,100.00
2023-03-29T07:34:25.876Z,100.00
2023-03-29T07:36:52.624Z,100.00
2023-03-29T07:39:19.248Z,100.00
2023-03-29T07:41:46.005Z,100.00
2023-03-29T07:44:12.659Z,100.00
2023-03-29T07:46:39.201Z,100.00
2023-03-29T07:49:07.473Z,100.00
2023-03-29T07:51:34.140Z,100.00
2023-03-29T07:54:00.797Z,100.00
2023-03-29T07:56:27.426Z,100.00
2023-03-29T07:58:53.983Z,100.00
2023-03-29T08:01:20.680Z,100.00
2023-03-29T08:03:48.141Z,100.00
2023-03-29T08:06:16.217Z,100.00
2023-03-29T08:08:42.887Z,100.00
2023-03-29T08:11:10.258Z,100.00
2023-03-29T08:13:37.434Z,100.00
2023-03-29T08:16:05.843Z,100.00
2023-03-29T08:18:34.691Z,100.00
2023-03-29T08:21:02.141Z,100.00
2023-03-29T08:23:28.945Z,100.00
2023-03-29T08:25:55.740Z,100.00
2023-03-29T08:28:22.352Z,100.00
2023-03-29T08:30:49.763Z,100.00
2023-03-29T08:33:17.023Z,97.54
2023-03-29T08:35:43.924Z,98.63
2023-03-29T08:38:11.309Z,97.08
2023-03-29T08:40:38.060Z,95.00
2023-03-29T08:43:07.936Z,94.14
2023-03-29T08:45:55.935Z,92.64
2023-03-29T08:48:44.141Z,98.93
2023-03-29T08:51:30.583Z,93.70
2023-03-29T08:54:05.434Z,93.76
2023-03-29T08:56:36.129Z,99.03
2023-03-29T08:59:03.959Z,93.57
2023-03-29T09:01:35.394Z,84.91
2023-03-29T09:04:08.952Z,85.23
2023-03-29T09:06:36.086Z,88.09
2023-03-29T09:09:03.600Z,86.23
2023-03-29T09:11:48.210Z,83.54
2023-03-29T09:14:57.047Z,81.83
2023-03-29T09:17:52.132Z,81.83
2023-03-29T09:20:36.658Z,79.54
2023-03-29T09:23:18.826Z,77.98
2023-03-29T09:25:57.467Z,79.30
2023-03-29T09:28:38.488Z,82.16
2023-03-29T09:31:21.210Z,78.57
2023-03-29T09:34:17.690Z,75.28
2023-03-29T09:36:58.046Z,75.28
2023-03-29T09:39:28.305Z,73.10
2023-03-29T09:42:05.241Z,68.37
2023-03-29T09:44:54.363Z,69.93
2023-03-29T09:47:28.138Z,68.09
2023-03-29T09:50:02.064Z,69.85
2023-03-29T09:52:28.792Z,70.49
2023-03-29T09:54:55.829Z,65.28
2023-03-29T09:57:22.612Z,63.62
2023-03-29T09:59:51.819Z,66.41
2023-03-29T10:02:21.128Z,63.19
2023-03-29T10:04:55.771Z,66.79
2023-03-29T10:07:22.784Z,64.72
2023-03-29T10:09:52.279Z,65.83
2023-03-29T10:12:20.044Z,69.85
2023-03-29T10:14:52.227Z,66.74
2023-03-29T10:17:22.453Z,63.47
2023-03-29T10:20:04.050Z,64.75
2023-03-29T10:22:37.868Z,64.87
2023-03-29T10:25:12.931Z,62.91
2023-03-29T10:27:43.081Z,61.89
2023-03-29T10:30:18.554Z,100.00
2023-03-29T10:32:45.393Z,100.00
2023-03-29T10:35:43.780Z,100.00
2023-03-29T10:38:23.042Z,100.00
2023-03-29T10:40:52.512Z,100.00
2023-03-29T10:43:34.146Z,100.00
2023-03-29T10:46:17.613Z,100.00
2023-03-29T10:48:50.374Z,100.00
2023-03-29T10:51:19.091Z,100.00
2023-03-29T10:53:45.852Z,100.00
2023-03-29T10:56:37.148Z,100.00
2023-03-29T10:59:07.338Z,100.00
2023-03-29T11:02:13.036Z,100.00
2023-03-29T11:05:01.625Z,100.00
2023-03-29T11:07:35.903Z,100.00
2023-03-29T11:10:30.690Z,100.00
2023-03-29T11:13:33.153Z,100.00
2023-03-29T11:16:11.853Z,100.00
2023-03-29T11:19:02.582Z,100.00
2023-03-29T11:22:01.330Z,100.00
2023-03-29T11:24:40.052Z,100.00
2023-03-29T11:27:24.360Z,100.00
2023-03-29T11:30:08.717Z,100.00
2023-03-29T11:32:46.491Z,100.00
2023-03-29T11:35:33.433Z,100.00
2023-03-29T11:38:08.452Z,100.00
2023-03-29T11:40:46.617Z,100.00
2023-03-29T11:43:20.864Z,100.00
2023-03-29T11:45:55.065Z,100.00
2023-03-29T11:48:28.370Z,100.00
2023-03-29T11:50:57.767Z,100.00
2023-03-29T11:54:07.849Z,100.00
2023-03-29T11:56:43.531Z,100.00
2023-03-29T11:59:18.403Z,100.00
2023-03-29T12:02:14.429Z,100.00
2023-03-29T12:04:52.145Z,100.00
2023-03-29T12:07:33.145Z,100.00
2023-03-29T12:10:16.575Z,100.00
2023-03-29T12:12:49.001Z,100.00
2023-03-29T12:15:21.491Z,100.00
2023-03-29T12:18:15.940Z,100.00
2023-03-29T12:20:43.190Z,61.89
2023-03-29T12:23:14.552Z,67.66
2023-03-29T12:25:43.766Z,68.71
2023-03-29T12:28:38.896Z,67.16
2023-03-29T12:31:14.381Z,69.07
2023-03-29T12:33:55.052Z,67.41
2023-03-29T12:36:43.861Z,69.62
2023-03-29T12:39:19.294Z,73.93
2023-03-29T12:41:48.990Z,74.43
2023-03-29T12:44:17.685Z,74.19
2023-03-29T12:46:44.527Z,75.08
2023-03-29T12:49:26.871Z,74.79
2023-03-29T12:51:58.937Z,75.66
2023-03-29T12:54:31.117Z,76.70
2023-03-29T12:57:01.968Z,77.59
2023-03-29T12:59:34.568Z,75.73
2023-03-29T13:02:19.623Z,77.51
2023-03-29T13:04:55.191Z,73.57
2023-03-29T13:07:27.977Z,73.12
2023-03-29T13:10:03.703Z,74.67
2023-03-29T13:12:46.057Z,73.17
2023-03-29T13:15:16.785Z,75.72
2023-03-29T13:18:07.046Z,74.36
2023-03-29T13:20:52.076Z,75.16
2023-03-29T13:23:37.003Z,75.17
2023-03-29T13:26:09.611Z,73.65
2023-03-29T13:29:22.477Z,74.05
2023-03-29T13:32:27.636Z,72.61
2023-03-29T13:35:22.603Z,74.23
2023-03-29T13:38:03.749Z,72.77
2023-03-29T13:40:30.288Z,72.58
2023-03-29T13:43:09.597Z,73.59
2023-03-29T13:45:37.114Z,72.54
2023-03-29T13:48:27.224Z,70.67
2023-03-29T13:51:18.483Z,69.60
2023-03-29T13:54:17.866Z,72.72
2023-03-29T13:57:01.454Z,69.57
2023-03-29T14:00:07.216Z,67.91
2023-03-29T14:02:52.742Z,67.22
2023-03-29T14:05:28.447Z,67.28
2023-03-29T14:07:55.833Z,67.10
2023-03-29T14:10:38.796Z,67.99
2023-03-29T14:13:05.481Z,61.62
2023-03-29T14:15:45.498Z,60.72
2023-03-29T14:18:15.220Z,63.89
2023-03-29T14:20:46.855Z,60.86
2023-03-29T14:23:43.554Z,60.14
2023-03-29T14:26:19.034Z,58.43
2023-03-29T14:28:56.459Z,58.65
2023-03-29T14:31:26.868Z,60.75
2023-03-29T14:33:56.634Z,61.09
2023-03-29T14:36:25.157Z,62.37
2023-03-29T14:39:20.181Z,59.75
2023-03-29T14:41:52.906Z,60.31
2023-03-29T14:44:26.030Z,60.16
2023-03-29T14:46:53.606Z,61.25
2023-03-29T14:49:22.947Z,61.22
2023-03-29T14:51:50.909Z,62.62
2023-03-29T14:54:21.102Z,60.54
2023-03-29T14:56:49.040Z,61.67
2023-03-29T14:59:44.514Z,60.64
2023-03-29T15:02:30.733Z,61.80
2023-03-29T15:05:05.321Z,59.46
2023-03-29T15:07:37.177Z,60.71
2023-03-29T15:10:06.521Z,61.07
2023-03-29T15:12:34.220Z,59.67
2023-03-29T15:15:02.621Z,60.53
2023-03-29T15:17:50.492Z,62.21
2023-03-29T15:20:26.127Z,60.56
2023-03-29T15:23:15.791Z,62.01
2023-03-29T15:25:51.348Z,61.59
2023-03-29T15:28:31.009Z,61.67
2023-03-29T15:31:07.679Z,61.99
2023-03-29T15:33:37.994Z,61.54
2023-03-29T15:36:06.812Z,61.11
2023-03-29T15:38:43.146Z,61.85
2023-03-29T15:41:11.225Z,61.51
2023-03-29T15:43:38.055Z,63.02
2023-03-29T15:46:05.082Z,65.33
2023-03-29T15:48:33.827Z,64.00
2023-03-29T15:51:04.818Z,63.74
2023-03-29T15:53:33.334Z,62.17
2023-03-29T15:56:02.129Z,62.36
2023-03-29T15:58:34.372Z,63.64
2023-03-29T16:01:19.026Z,64.55
2023-03-29T16:03:47.873Z,64.18
2023-03-29T16:06:16.025Z,63.34
2023-03-29T16:08:42.641Z,62.91
2023-03-29T16:11:09.414Z,63.87
2023-03-29T16:13:36.073Z,63.30
2023-03-29T16:16:03.008Z,64.25
2023-03-29T16:18:29.899Z,65.48
2023-03-29T16:20:56.960Z,65.78
2023-03-29T16:23:23.595Z,67.38
2023-03-29T16:25:50.398Z,63.00
2023-03-29T16:28:17.008Z,63.92
2023-03-29T16:30:43.738Z,64.29
2023-03-29T16:33:11.184Z,64.07
2023-03-29T16:35:42.099Z,62.28
2023-03-29T16:38:09.323Z,64.18
2023-03-29T16:40:36.946Z,64.41
2023-03-29T16:43:03.859Z,62.45
2023-03-29T16:45:30.785Z,64.12
2023-03-29T16:47:57.701Z,63.74
2023-03-29T16:50:24.450Z,63.47
2023-03-29T16:52:54.094Z,63.97
2023-03-29T16:55:20.695Z,63.36
2023-03-29T16:57:47.949Z,64.67
2023-03-29T17:00:16.972Z,63.71
2023-03-29T17:02:44.175Z,65.41
2023-03-29T17:05:12.408Z,65.62
2023-03-29T17:07:43.129Z,66.20
2023-03-29T17:10:11.010Z,65.85
2023-03-29T17:12:38.080Z,66.10
2023-03-29T17:15:07.589Z,66.25
2023-03-29T17:17:34.916Z,65.17
2023-03-29T17:20:01.591Z,65.69
2023-03-29T17:22:28.118Z,65.46
2023-03-29T17:24:54.771Z,65.39
2023-03-29T17:27:21.375Z,65.32
2023-03-29T17:29:48.045Z,65.71
2023-03-29T17:32:14.653Z,66.45
2023-03-29T17:34:41.691Z,66.19
2023-03-29T17:37:09.589Z,66.03
2023-03-29T17:39:37.599Z,66.25
2023-03-29T17:42:05.158Z,66.68
2023-03-29T17:44:33.354Z,67.05
2023-03-29T17:47:01.260Z,67.11
2023-03-29T17:49:28.052Z,67.31
2023-03-29T17:51:54.718Z,67.30
2023-03-29T17:54:21.411Z,66.84
2023-03-29T17:56:49.000Z,67.25
2023-03-29T17:59:16.001Z,66.77
2023-03-29T18:01:42.968Z,67.31
2023-03-29T18:04:09.640Z,67.44
2023-03-29T18:06:36.868Z,67.74
2023-03-29T18:09:11.283Z,67.47
2023-03-29T18:11:39.112Z,67.52
2023-03-29T18:14:05.769Z,68.09
2023-03-29T18:16:32.539Z,67.83
2023-03-29T18:18:59.170Z,68.80
2023-03-29T18:21:27.077Z,68.78
2023-03-29T18:23:56.205Z,68.72
2023-03-29T18:26:23.587Z,68.78
2023-03-29T18:28:50.928Z,69.54
2023-03-29T18:31:19.743Z,69.11
2023-03-29T18:33:46.879Z,69.08
2023-03-29T18:36:14.270Z,69.50
2023-03-29T18:38:43.328Z,68.39
2023-03-29T18:41:12.780Z,69.66
2023-03-29T18:43:40.490Z,70.04
2023-03-29T18:46:08.126Z,69.97
2023-03-29T18:48:41.910Z,69.67
2023-03-29T18:51:15.489Z,70.02
2023-03-29T18:53:43.641Z,70.11
2023-03-29T18:56:10.243Z,69.21
2023-03-29T18:58:39.624Z,69.28
2023-03-29T19:01:06.577Z,69.10
2023-03-29T19:03:34.907Z,68.79
2023-03-29T19:06:02.552Z,69.01
2023-03-29T19:08:29.491Z,68.77
2023-03-29T19:11:04.750Z,68.71
2023-03-29T19:13:31.330Z,68.59
2023-03-29T19:15:57.901Z,68.71
2023-03-29T19:18:24.792Z,69.04
2023-03-29T19:20:51.615Z,69.44
2023-03-29T19:23:18.471Z,70.09
2023-03-29T19:25:52.890Z,70.41
2023-03-29T19:28:19.581Z,70.75
2023-03-29T19:30:46.255Z,71.66
2023-03-29T19:33:14.538Z,72.27
2023-03-29T19:35:41.548Z,72.33
2023-03-29T19:38:08.169Z,72.46
2023-03-29T19:40:34.770Z,71.78
2023-03-29T19:43:01.369Z,72.21
2023-03-29T19:45:28.369Z,72.41
2023-03-29T19:47:56.734Z,72.38
2023-03-29T19:50:24.870Z,72.22
2023-03-29T19:52:52.023Z,71.93
2023-03-29T19:55:18.594Z,71.76
2023-03-29T19:57:45.178Z,71.39
2023-03-29T20:00:14.150Z,71.25
2023-03-29T20:02:42.549Z,70.36
2023-03-29T20:05:09.553Z,69.61
2023-03-29T20:07:36.624Z,69.63
2023-03-29T20:10:03.769Z,68.75
2023-03-29T20:12:30.488Z,67.63
2023-03-29T20:14:57.063Z,67.55
2023-03-29T20:17:23.752Z,66.94
2023-03-29T20:19:50.382Z,67.77
2023-03-29T20:22:16.986Z,67.38
2023-03-29T20:24:43.544Z,68.07
2023-03-29T20:27:10.990Z,67.49
2023-03-29T20:29:37.957Z,67.04
2023-03-29T20:32:04.692Z,67.04
2023-03-29T20:34:31.292Z,67.92
2023-03-29T20:37:00.889Z,67.51
2023-03-29T20:39:29.641Z,68.30
2023-03-29T20:41:56.300Z,68.50
2023-03-29T20:44:26.280Z,69.38
2023-03-29T20:47:08.172Z,69.22
2023-03-29T20:49:39.816Z,69.72
2023-03-29T20:52:10.639Z,69.05
2023-03-29T20:54:38.672Z,69.35
2023-03-29T20:57:06.816Z,69.06
2023-03-29T20:59:34.441Z,69.36
2023-03-29T21:02:01.341Z,70.24
2023-03-29T21:04:28.389Z,70.04
2023-03-29T21:06:56.163Z,70.30
2023-03-29T21:09:25.494Z,70.30
2023-03-29T21:11:53.243Z,73.10
2023-03-29T21:14:21.315Z,72.26
2023-03-29T21:16:49.302Z,74.50
2023-03-29T21:19:16.885Z,75.59
2023-03-29T21:21:45.003Z,76.87
2023-03-29T21:24:13.447Z,78.72
2023-03-29T21:26:41.200Z,78.80
2023-03-29T21:29:08.058Z,78.87
2023-03-29T21:31:34.788Z,80.15
2023-03-29T21:34:01.616Z,81.91
2023-03-29T21:36:28.393Z,82.03
2023-03-29T21:38:55.018Z,81.23
2023-03-29T21:41:21.916Z,80.15
2023-03-29T21:43:48.752Z,82.84
2023-03-29T21:46:15.656Z,82.32
2023-03-29T21:48:42.523Z,82.72
2023-03-29T21:51:09.315Z,83.90
2023-03-29T21:53:36.187Z,83.24
2023-03-29T21:56:03.113Z,86.02
2023-03-29T21:58:29.691Z,86.69
2023-03-29T22:00:57.230Z,86.86
2023-03-29T22:03:23.930Z,90.00
2023-03-29T22:06:02.545Z,89.55
2023-03-29T22:08:30.776Z,88.76
2023-03-29T22:10:57.459Z,94.13
2023-03-29T22:13:25.398Z,92.97
2023-03-29T22:15:58.651Z,91.26
2023-03-29T22:18:30.420Z,97.38
2023-03-29T22:20:57.490Z,98.50
2023-03-29T22:23:24.904Z,96.59
2023-03-29T22:25:51.708Z,97.04
2023-03-29T22:28:18.342Z,97.45
2023-03-29T22:30:44.892Z,97.05
2023-03-29T22:33:11.500Z,97.20
2023-03-29T22:35:38.074Z,95.61
2023-03-29T22:38:04.642Z,94.28
2023-03-29T22:40:34.492Z,95.06
2023-03-29T22:43:02.698Z,93.89
2023-03-29T22:45:31.319Z,93.54
2023-03-29T22:47:58.002Z,92.72
2023-03-29T22:50:24.566Z,93.03
2023-03-29T22:52:51.119Z,93.65
2023-03-29T22:55:17.724Z,93.99
2023-03-29T22:57:44.666Z,94.44
2023-03-29T23:00:13.176Z,93.82
2023-03-29T23:02:40.016Z,94.09
2023-03-29T23:05:07.399Z,90.97
2023-03-29T23:07:36.541Z,94.02
2023-03-29T23:10:07.193Z,94.73
2023-03-29T23:12:36.212Z,95.05
2023-03-29T23:15:06.299Z,93.98
2023-03-29T23:17:32.940Z,95.04
2023-03-29T23:19:59.538Z,92.19
2023-03-29T23:22:26.220Z,95.97
2023-03-29T23:24:53.428Z,95.78
2023-03-29T23:27:21.297Z,94.38
2023-03-29T23:29:48.073Z,94.06
2023-03-29T23:32:15.737Z,97.36
2023-03-29T23:34:42.648Z,97.71
2023-03-29T23:37:09.240Z,95.76
2023-03-29T23:39:35.881Z,96.97
2023-03-29T23:42:03.457Z,96.44
2023-03-29T23:44:30.618Z,96.24
2023-03-29T23:46:57.579Z,96.67
2023-03-29T23:49:24.257Z,96.88
2023-03-29T23:51:50.830Z,98.43
2023-03-29T23:54:17.695Z,98.88
2023-03-29T23:56:44.406Z,97.63
2023-03-29T23:59:10.949Z,95.53
